Time;durP1;ratioP1;P1;durP2;ratioP2;P2;SDS_P1;SDS_P2;PMS_P1;PMS_P2;Temp;Humidity;BMP_temperature;BMP_pressure;BME280_temperature;BME280_humidity;BME280_pressure;Samples;Min_cycle;Max_cycle;Signal;HPM_P1;HPM_P2
2022/03/31 00:02:09;;;;;;;6.10;3.47;;;5.50;99.90;;;;;;4993769;28;20034;-87
2022/03/31 00:04:38;;;;;;;7.38;3.97;;;5.50;99.90;;;;;;4994458;28;20402;-87
2022/03/31 00:07:04;;;;;;;7.60;3.30;;;5.40;99.90;;;;;;4982299;28;20106;-88
2022/03/31 00:09:30;;;;;;;6.15;4.22;;;5.40;99.90;;;;;;4994204;28;20066;-88
2022/03/31 00:11:59;;;;;;;6.45;3.83;;;5.40;99.90;;;;;;4992973;28;20050;-88
2022/03/31 00:14:26;;;;;;;6.00;3.65;;;5.30;99.90;;;;;;4995160;28;20031;-88
2022/03/31 00:16:51;;;;;;;8.32;4.30;;;5.30;99.90;;;;;;4993179;28;20037;-87
2022/03/31 00:19:17;;;;;;;8.52;3.70;;;5.30;99.90;;;;;;4993837;28;20030;-88
2022/03/31 00:32:30;;;;;;;7.22;4.18;;;5.20;99.90;;;;;;4984065;28;20054;-87
2022/03/31 00:34:55;;;;;;;8.95;5.13;;;5.20;99.90;;;;;;4996922;28;20050;-87
2022/03/31 00:37:41;;;;;;;8.27;4.80;;;5.20;99.90;;;;;;4987416;28;20050;-87
2022/03/31 00:40:08;;;;;;;10.18;5.35;;;5.20;99.90;;;;;;4993990;28;20026;-88
2022/03/31 00:42:42;;;;;;;9.40;5.65;;;5.20;99.90;;;;;;4992928;28;20068;-88
2022/03/31 00:45:28;;;;;;;10.00;6.22;;;5.20;99.90;;;;;;4991977;28;20458;-88
2022/03/31 00:47:56;;;;;;;9.80;5.05;;;5.20;99.90;;;;;;4992793;28;20066;-87
2022/03/31 00:50:22;;;;;;;9.95;5.82;;;5.20;99.90;;;;;;4993520;28;20085;-88
2022/03/31 00:52:48;;;;;;;10.02;5.88;;;5.20;99.90;;;;;;4991978;28;20038;-88
2022/03/31 00:55:15;;;;;;;11.43;6.68;;;5.20;99.90;;;;;;4994318;28;20076;-88
2022/03/31 00:57:46;;;;;;;11.00;6.38;;;5.20;99.90;;;;;;4986461;28;20509;-87
2022/03/31 01:00:14;;;;;;;8.50;5.53;;;5.20;99.90;;;;;;4991592;28;20030;-87
2022/03/31 01:02:43;;;;;;;14.32;6.30;;;5.20;99.90;;;;;;5008316;28;20478;-88
2022/03/31 01:05:09;;;;;;;10.80;5.82;;;5.20;99.90;;;;;;4993054;28;20398;-88
2022/03/31 01:07:37;;;;;;;9.93;5.85;;;5.20;99.90;;;;;;5002358;28;20027;-87
2022/03/31 01:10:04;;;;;;;8.80;6.00;;;5.20;99.90;;;;;;5008931;28;20030;-88
2022/03/31 01:12:30;;;;;;;9.27;5.32;;;5.10;99.90;;;;;;5008189;28;20466;-88
2022/03/31 01:15:09;;;;;;;10.65;6.47;;;5.00;99.90;;;;;;4991890;28;20065;-88
2022/03/31 01:17:36;;;;;;;10.40;6.18;;;4.90;99.90;;;;;;4993487;28;20049;-88
2022/03/31 01:20:05;;;;;;;11.02;5.95;;;4.90;99.90;;;;;;4992923;28;21059;-88
2022/03/31 01:22:32;;;;;;;10.25;6.85;;;4.90;99.90;;;;;;4992255;28;20019;-88
2022/03/31 01:25:04;;;;;;;11.00;6.25;;;4.80;99.90;;;;;;4989689;28;20038;-87
2022/03/31 01:27:30;;;;;;;10.25;6.40;;;4.80;99.90;;;;;;4991182;28;20034;-87
2022/03/31 01:29:55;;;;;;;9.75;6.00;;;4.80;99.90;;;;;;4992937;28;20525;-87
2022/03/31 01:32:21;;;;;;;11.23;7.07;;;4.70;99.90;;;;;;4991966;28;20057;-87
2022/03/31 01:34:47;;;;;;;9.27;7.07;;;4.80;99.90;;;;;;5008528;28;20023;-88
2022/03/31 01:37:13;;;;;;;12.68;7.50;;;4.70;99.90;;;;;;4991949;28;20528;-88
2022/03/31 01:39:40;;;;;;;10.88;7.15;;;4.60;99.90;;;;;;4990934;28;20494;-87
2022/03/31 01:42:06;;;;;;;12.20;7.43;;;4.60;99.90;;;;;;4991527;28;20038;-87
2022/03/31 01:44:32;;;;;;;11.73;7.53;;;4.60;99.90;;;;;;4991560;28;20064;-88
2022/03/31 01:46:58;;;;;;;11.30;7.15;;;4.60;99.90;;;;;;4990795;28;20029;-88
2022/03/31 01:49:24;;;;;;;10.68;6.15;;;4.50;99.90;;;;;;4990835;28;20042;-87
2022/03/31 01:51:49;;;;;;;12.02;7.53;;;4.50;99.90;;;;;;4991223;28;20037;-87
2022/03/31 01:54:15;;;;;;;9.98;7.28;;;4.60;99.90;;;;;;5007581;28;20036;-88
2022/03/31 01:56:42;;;;;;;10.75;6.82;;;4.50;99.90;;;;;;4991466;28;20050;-87
2022/03/31 01:59:08;;;;;;;10.38;7.10;;;4.50;99.90;;;;;;5006554;28;20037;-87
2022/03/31 02:01:34;;;;;;;11.10;7.50;;;4.50;99.90;;;;;;4991543;28;20022;-88
2022/03/31 02:03:59;;;;;;;12.10;8.35;;;4.40;99.90;;;;;;4991400;28;20422;-87
2022/03/31 02:06:25;;;;;;;11.10;7.50;;;4.50;99.90;;;;;;4991584;28;20026;-87
2022/03/31 02:08:50;;;;;;;11.00;7.10;;;4.50;99.90;;;;;;4991707;28;20109;-88
2022/03/31 02:11:16;;;;;;;9.70;5.88;;;4.50;99.90;;;;;;4992307;28;20022;-87
2022/03/31 02:13:43;;;;;;;7.80;5.75;;;4.50;99.90;;;;;;4991127;28;20501;-87
2022/03/31 02:16:08;;;;;;;7.82;5.05;;;4.50;99.90;;;;;;5006825;28;20477;-88
2022/03/31 02:18:34;;;;;;;7.95;5.20;;;4.50;99.90;;;;;;4991327;28;20117;-88
2022/03/31 02:21:00;;;;;;;6.70;5.07;;;4.40;99.90;;;;;;4990012;28;20081;-88
2022/03/31 02:23:25;;;;;;;7.90;5.10;;;4.30;99.90;;;;;;4998791;28;20486;-87
2022/03/31 02:25:51;;;;;;;9.90;5.20;;;4.30;99.90;;;;;;4990094;28;20078;-88
2022/03/31 02:28:17;;;;;;;7.40;5.03;;;4.30;99.90;;;;;;4990740;28;20030;-87
2022/03/31 02:30:42;;;;;;;6.07;4.43;;;4.20;99.90;;;;;;4991090;28;20161;-87
2022/03/31 02:33:08;;;;;;;8.43;4.63;;;4.20;99.90;;;;;;4991610;28;20057;-87
2022/03/31 02:35:34;;;;;;;6.60;4.40;;;4.10;99.90;;;;;;4991132;28;20030;-88
2022/03/31 02:38:00;;;;;;;6.80;4.35;;;4.10;99.90;;;;;;4991739;28;20033;-88
2022/03/31 02:40:25;;;;;;;5.93;3.67;;;4.10;99.90;;;;;;4991735;28;20046;-87
2022/03/31 02:42:52;;;;;;;12.15;5.07;;;4.00;99.90;;;;;;4988361;28;20466;-87
2022/03/31 02:45:19;;;;;;;5.32;3.47;;;4.00;99.90;;;;;;4991635;28;20034;-87
2022/03/31 02:47:45;;;;;;;6.43;3.78;;;4.00;99.90;;;;;;4990759;28;20038;-87
2022/03/31 02:50:12;;;;;;;5.82;3.28;;;3.90;99.90;;;;;;4986215;28;20478;-87
2022/03/31 02:55:24;;;;;;;8.65;3.47;;;3.90;99.90;;;;;;4981818;28;20117;-87
2022/03/31 02:57:50;;;;;;;5.93;3.13;;;3.70;99.90;;;;;;4989088;28;20030;-87
2022/03/31 03:00:16;;;;;;;5.45;3.92;;;3.70;99.90;;;;;;4988883;28;20065;-87
2022/03/31 03:02:41;;;;;;;5.90;3.17;;;3.70;99.90;;;;;;4989292;28;20486;-88
2022/03/31 03:05:07;;;;;;;5.68;3.08;;;3.70;99.90;;;;;;4993974;28;20100;-88
2022/03/31 03:07:33;;;;;;;4.10;2.78;;;3.70;99.90;;;;;;4994146;28;20109;-87
2022/03/31 03:09:59;;;;;;;4.00;2.53;;;3.70;99.90;;;;;;4993711;28;20533;-88
2022/03/31 03:12:24;;;;;;;5.53;2.75;;;3.70;99.90;;;;;;4997285;28;20069;-88
2022/03/31 03:14:51;;;;;;;4.03;2.58;;;3.70;99.90;;;;;;4986956;28;20086;-88
2022/03/31 03:17:17;;;;;;;6.57;2.97;;;3.70;99.90;;;;;;5007985;28;20487;-88
2022/03/31 03:19:43;;;;;;;3.78;2.97;;;3.70;99.90;;;;;;5007780;28;20478;-87
2022/03/31 03:22:09;;;;;;;3.35;2.15;;;3.60;99.90;;;;;;4995774;28;20030;-88
2022/03/31 03:24:35;;;;;;;2.45;1.58;;;3.60;99.90;;;;;;4986750;28;20096;-88
2022/03/31 03:27:00;;;;;;;2.78;1.30;;;3.60;99.90;;;;;;4985056;28;20029;-87
2022/03/31 03:29:26;;;;;;;2.45;1.52;;;3.50;99.90;;;;;;4991256;28;20133;-88
2022/03/31 03:31:52;;;;;;;2.60;1.38;;;3.50;99.90;;;;;;4991534;28;20125;-87
2022/03/31 03:34:18;;;;;;;2.80;1.33;;;3.40;99.90;;;;;;4992976;28;20089;-87
2022/03/31 03:36:43;;;;;;;2.53;1.20;;;3.40;99.90;;;;;;4993180;28;20034;-88
2022/03/31 03:39:11;;;;;;;2.45;1.15;;;3.30;99.90;;;;;;4994824;28;20088;-87
2022/03/31 03:41:39;;;;;;;2.00;0.80;;;3.30;99.90;;;;;;4991297;28;20030;-87
2022/03/31 03:44:05;;;;;;;1.73;0.77;;;3.30;99.90;;;;;;4992982;28;20500;-88
2022/03/31 03:46:30;;;;;;;2.47;0.90;;;3.20;99.90;;;;;;4994258;28;20058;-88
2022/03/31 03:48:56;;;;;;;2.67;0.98;;;3.20;99.90;;;;;;4993950;28;20097;-87
2022/03/31 03:51:24;;;;;;;1.85;0.80;;;3.20;99.90;;;;;;4994322;28;20030;-87
2022/03/31 03:53:52;;;;;;;1.55;0.93;;;3.10;99.90;;;;;;4993957;28;20037;-88
2022/03/31 03:56:18;;;;;;;2.03;1.05;;;3.00;99.90;;;;;;4999369;28;20030;-87
2022/03/31 03:58:44;;;;;;;2.50;1.00;;;3.00;99.90;;;;;;4994140;28;20105;-87
2022/03/31 04:01:09;;;;;;;1.83;0.80;;;3.10;99.90;;;;;;4992957;28;20026;-87
2022/03/31 04:03:35;;;;;;;2.25;0.90;;;3.00;99.90;;;;;;5007346;28;20038;-88
2022/03/31 04:06:01;;;;;;;2.00;0.82;;;3.00;99.90;;;;;;4994274;28;20619;-87
2022/03/31 04:08:27;;;;;;;2.47;0.80;;;3.00;99.90;;;;;;4993573;28;20080;-88
2022/03/31 04:10:52;;;;;;;1.73;0.75;;;3.00;99.90;;;;;;4990053;28;20446;-88
2022/03/31 04:13:18;;;;;;;1.73;0.80;;;3.00;99.90;;;;;;4992379;28;21479;-88
2022/03/31 04:15:44;;;;;;;2.25;0.88;;;2.90;99.90;;;;;;4994599;28;20045;-88
2022/03/31 04:18:09;;;;;;;1.40;0.70;;;3.00;99.90;;;;;;5008746;28;20030;-88
2022/03/31 04:20:35;;;;;;;1.73;0.80;;;2.90;99.90;;;;;;5011994;28;20340;-88
2022/03/31 04:23:01;;;;;;;1.70;0.60;;;2.90;99.90;;;;;;4996471;28;20172;-87
2022/03/31 04:25:27;;;;;;;2.00;0.95;;;2.90;99.90;;;;;;4992146;28;20133;-87
2022/03/31 04:27:52;;;;;;;2.22;1.02;;;2.90;99.90;;;;;;4994973;28;20053;-88
2022/03/31 04:30:20;;;;;;;2.33;0.80;;;2.80;99.90;;;;;;5008124;28;20038;-88
2022/03/31 04:32:47;;;;;;;1.70;0.70;;;2.80;99.90;;;;;;4995641;28;20471;-88
2022/03/31 04:35:12;;;;;;;1.67;0.80;;;2.90;99.90;;;;;;5010907;28;20114;-88
2022/03/31 04:37:38;;;;;;;2.03;0.93;;;2.90;99.90;;;;;;5011477;28;20085;-88
2022/03/31 04:40:05;;;;;;;1.80;0.80;;;2.90;99.90;;;;;;4993561;28;20038;-87
2022/03/31 04:42:31;;;;;;;2.72;0.88;;;2.90;99.90;;;;;;5008454;28;20027;-87
2022/03/31 04:44:57;;;;;;;2.47;0.90;;;2.80;99.90;;;;;;5010053;28;20449;-87
2022/03/31 04:47:23;;;;;;;2.40;1.00;;;2.80;99.90;;;;;;5005900;28;20113;-87
2022/03/31 04:49:49;;;;;;;3.30;1.15;;;2.80;99.90;;;;;;5010025;28;20093;-87
2022/03/31 04:52:14;;;;;;;2.90;0.90;;;2.70;99.90;;;;;;4993244;28;20624;-87
2022/03/31 04:54:43;;;;;;;2.10;0.75;;;2.70;99.90;;;;;;4993472;28;20026;-87
2022/03/31 04:57:14;;;;;;;2.00;0.82;;;2.60;99.90;;;;;;4993808;28;20019;-87
2022/03/31 04:59:40;;;;;;;1.60;0.63;;;2.60;99.90;;;;;;4993249;28;20030;-87
2022/03/31 05:02:06;;;;;;;1.45;0.60;;;2.50;99.90;;;;;;4992427;28;20026;-87
2022/03/31 05:04:32;;;;;;;1.27;0.60;;;2.50;99.90;;;;;;4992275;28;20038;-87
2022/03/31 05:06:58;;;;;;;2.00;0.75;;;2.50;99.90;;;;;;4990586;28;20034;-87
2022/03/31 05:09:23;;;;;;;1.63;0.60;;;2.50;99.90;;;;;;4992961;28;20030;-87
2022/03/31 05:11:49;;;;;;;1.60;0.60;;;2.50;99.90;;;;;;4992777;28;20023;-86
2022/03/31 05:14:15;;;;;;;1.50;0.60;;;2.40;99.90;;;;;;4993315;28;20030;-87
2022/03/31 05:16:40;;;;;;;1.83;0.73;;;2.40;99.90;;;;;;5004925;28;20058;-87
2022/03/31 05:19:06;;;;;;;1.67;0.95;;;2.30;99.90;;;;;;4993036;28;20033;-87
2022/03/31 05:21:31;;;;;;;2.10;0.85;;;2.30;99.90;;;;;;4991703;28;20057;-87
2022/03/31 05:23:57;;;;;;;1.85;0.90;;;2.30;99.90;;;;;;4991214;28;20046;-87
2022/03/31 05:26:23;;;;;;;1.75;0.80;;;2.30;99.90;;;;;;4993420;28;20058;-87
2022/03/31 05:28:48;;;;;;;1.90;1.00;;;2.30;99.90;;;;;;5006536;28;20026;-87
2022/03/31 05:31:14;;;;;;;1.77;0.80;;;2.20;99.90;;;;;;4988692;28;20054;-88
2022/03/31 05:33:39;;;;;;;2.05;0.93;;;2.20;99.90;;;;;;5011098;28;20030;-87
2022/03/31 05:36:05;;;;;;;1.95;0.85;;;2.20;99.90;;;;;;4995970;28;20105;-87
2022/03/31 05:38:31;;;;;;;3.05;1.00;;;2.20;99.90;;;;;;4994872;28;20031;-86
2022/03/31 05:40:56;;;;;;;2.90;0.95;;;2.20;99.90;;;;;;4993226;28;20065;-88
2022/03/31 05:43:22;;;;;;;2.53;0.82;;;2.10;99.90;;;;;;4990856;28;20438;-87
2022/03/31 05:45:48;;;;;;;1.60;0.70;;;2.10;99.90;;;;;;4983046;28;20026;-87
2022/03/31 05:48:14;;;;;;;1.67;0.70;;;2.20;99.90;;;;;;5008904;28;20046;-87
2022/03/31 05:50:39;;;;;;;1.65;0.75;;;2.10;99.90;;;;;;4995648;28;20022;-87
2022/03/31 05:53:05;;;;;;;1.90;0.80;;;2.10;99.90;;;;;;4990849;28;20035;-87
2022/03/31 05:55:30;;;;;;;1.40;0.70;;;2.10;99.90;;;;;;4978394;28;20014;-87
2022/03/31 05:57:56;;;;;;;1.85;1.00;;;2.10;99.90;;;;;;4993696;28;20033;-87
2022/03/31 06:00:22;;;;;;;1.67;0.70;;;2.10;99.90;;;;;;4994372;28;20023;-87
2022/03/31 06:02:49;;;;;;;2.15;1.00;;;2.00;99.90;;;;;;4994822;28;20128;-87
2022/03/31 06:05:15;;;;;;;1.85;0.93;;;2.00;99.90;;;;;;4996982;28;20034;-88
2022/03/31 06:07:41;;;;;;;2.30;1.00;;;2.00;99.90;;;;;;5004801;28;20033;-87
2022/03/31 06:10:07;;;;;;;2.33;1.00;;;1.90;99.90;;;;;;4999215;28;20552;-87
2022/03/31 06:12:34;;;;;;;2.05;0.90;;;1.90;99.90;;;;;;4994684;28;20030;-87
2022/03/31 06:15:03;;;;;;;2.35;1.27;;;1.80;99.90;;;;;;5011112;28;20072;-88
2022/03/31 06:17:28;;;;;;;3.17;1.48;;;1.80;99.90;;;;;;5003786;28;20486;-88
2022/03/31 06:19:54;;;;;;;2.60;1.30;;;1.80;99.90;;;;;;4990585;28;20033;-88
2022/03/31 06:22:20;;;;;;;2.85;1.27;;;1.80;99.90;;;;;;5002226;28;20034;-89
2022/03/31 06:24:46;;;;;;;3.47;1.67;;;1.70;99.90;;;;;;5007346;28;20129;-90
2022/03/31 06:27:12;;;;;;;2.25;1.20;;;1.70;99.90;;;;;;4984311;28;20027;-89
2022/03/31 06:29:38;;;;;;;3.17;1.30;;;1.70;99.90;;;;;;5006795;28;20034;-90
2022/03/31 06:32:06;;;;;;;2.72;1.42;;;1.70;99.90;;;;;;4989726;28;20034;-89
2022/03/31 06:34:31;;;;;;;2.50;1.40;;;1.70;99.90;;;;;;4992472;28;20383;-90
2022/03/31 06:36:57;;;;;;;2.85;1.35;;;1.70;99.90;;;;;;4990962;28;20076;-89
2022/03/31 06:39:23;;;;;;;3.42;1.60;;;1.70;99.90;;;;;;5009504;28;20026;-89
2022/03/31 06:41:48;;;;;;;2.30;1.05;;;1.70;99.90;;;;;;5008415;28;20050;-89
2022/03/31 06:44:16;;;;;;;3.30;1.17;;;1.70;99.90;;;;;;4996427;28;20078;-92
2022/03/31 06:46:42;;;;;;;1.90;0.93;;;1.70;99.90;;;;;;4996322;28;20113;-89
2022/03/31 06:49:08;;;;;;;2.70;1.10;;;1.70;99.90;;;;;;4998362;28;20057;-92
2022/03/31 06:51:34;;;;;;;2.05;1.05;;;1.80;99.90;;;;;;5002469;28;20267;-90
2022/03/31 06:54:00;;;;;;;2.45;1.20;;;1.80;99.90;;;;;;4986895;28;20030;-90
2022/03/31 06:56:27;;;;;;;2.00;1.17;;;1.80;99.90;;;;;;4997438;28;20027;-90
2022/03/31 06:58:57;;;;;;;3.15;1.52;;;1.90;99.90;;;;;;4983730;28;20030;-89
2022/03/31 07:01:24;;;;;;;1.90;1.10;;;1.90;99.90;;;;;;4985379;28;20030;-90
2022/03/31 07:03:50;;;;;;;2.17;1.35;;;2.00;99.90;;;;;;4990489;28;20093;-88
2022/03/31 07:06:16;;;;;;;3.22;1.70;;;2.00;99.90;;;;;;5002099;28;20031;-89
2022/03/31 07:08:41;;;;;;;2.63;1.17;;;2.00;99.90;;;;;;4986599;28;20035;-88
2022/03/31 07:11:08;;;;;;;1.60;0.80;;;2.00;99.90;;;;;;4977492;28;20577;-89
2022/03/31 07:13:34;;;;;;;2.15;1.00;;;2.10;99.90;;;;;;4988570;28;20026;-88
2022/03/31 07:15:59;;;;;;;2.13;0.88;;;2.10;99.90;;;;;;4994866;28;20023;-89
2022/03/31 07:18:28;;;;;;;2.20;1.17;;;2.10;99.90;;;;;;5010049;28;20425;-89
2022/03/31 07:20:53;;;;;;;2.40;1.50;;;2.20;99.90;;;;;;5004851;28;20027;-89
2022/03/31 07:23:21;;;;;;;3.05;1.45;;;2.20;99.90;;;;;;4993703;28;20486;-88
2022/03/31 07:25:47;;;;;;;1.95;1.05;;;2.20;99.90;;;;;;4992625;28;20050;-88
2022/03/31 07:28:13;;;;;;;2.33;1.35;;;2.30;99.90;;;;;;4989669;28;20018;-88
2022/03/31 07:30:39;;;;;;;2.65;1.20;;;2.30;99.90;;;;;;5010470;28;20026;-89
2022/03/31 07:33:04;;;;;;;2.13;1.10;;;2.30;99.90;;;;;;4991507;28;20121;-88
2022/03/31 07:35:33;;;;;;;2.13;1.08;;;2.40;99.90;;;;;;4991075;28;20070;-89
2022/03/31 07:37:59;;;;;;;1.80;0.95;;;2.40;99.90;;;;;;4982146;28;20022;-89
2022/03/31 07:40:26;;;;;;;1.73;0.90;;;2.50;99.90;;;;;;4996026;28;20030;-89
2022/03/31 07:42:52;;;;;;;1.67;1.10;;;2.40;99.90;;;;;;4986595;28;20026;-89
2022/03/31 07:45:19;;;;;;;1.90;0.80;;;2.40;99.90;;;;;;4994957;28;20038;-88
2022/03/31 07:47:45;;;;;;;1.13;0.60;;;2.40;99.90;;;;;;5006048;28;20052;-89
2022/03/31 07:50:14;;;;;;;1.85;0.90;;;2.40;99.90;;;;;;5005819;28;20031;-87
2022/03/31 07:52:41;;;;;;;1.80;1.00;;;2.50;99.90;;;;;;4976180;28;20018;-89
2022/03/31 07:55:09;;;;;;;2.28;1.02;;;2.50;99.90;;;;;;4987124;28;20049;-88
2022/03/31 07:57:35;;;;;;;1.52;0.80;;;2.40;99.90;;;;;;4991783;28;20616;-89
2022/03/31 08:00:00;;;;;;;2.42;1.08;;;2.40;99.90;;;;;;4993677;28;20026;-88
2022/03/31 08:02:26;;;;;;;1.75;0.98;;;2.40;99.90;;;;;;4993564;28;20030;-88
2022/03/31 08:04:52;;;;;;;1.50;0.80;;;2.40;99.90;;;;;;4994357;28;20073;-89
2022/03/31 08:07:18;;;;;;;1.90;0.88;;;2.50;99.90;;;;;;4993805;28;20081;-88
2022/03/31 08:09:44;;;;;;;1.90;1.00;;;2.40;99.90;;;;;;5010323;28;20022;-89
2022/03/31 08:12:10;;;;;;;2.10;1.10;;;2.50;99.90;;;;;;4993723;28;20394;-89
2022/03/31 08:14:36;;;;;;;2.10;1.30;;;2.60;99.90;;;;;;4995085;28;20065;-88
2022/03/31 08:17:02;;;;;;;2.92;1.25;;;2.60;99.90;;;;;;4992091;28;20027;-89
2022/03/31 08:19:32;;;;;;;1.98;0.90;;;2.70;99.90;;;;;;5006509;28;20521;-89
2022/03/31 08:22:02;;;;;;;2.08;1.23;;;2.70;99.90;;;;;;5005759;28;20058;-87
2022/03/31 08:24:28;;;;;;;2.80;1.20;;;2.80;99.90;;;;;;4993652;28;20076;-87
2022/03/31 08:26:54;;;;;;;2.25;1.48;;;2.80;99.90;;;;;;4994213;28;20557;-89
2022/03/31 08:29:20;;;;;;;1.98;1.33;;;2.70;99.90;;;;;;4993794;28;20177;-89
2022/03/31 08:31:46;;;;;;;3.28;1.23;;;2.80;99.90;;;;;;4994600;28;20117;-88
2022/03/31 08:34:12;;;;;;;2.20;1.30;;;2.90;99.90;;;;;;4995687;28;20050;-88
2022/03/31 08:36:37;;;;;;;2.00;1.20;;;2.90;99.90;;;;;;5011838;28;20029;-86
2022/03/31 08:39:05;;;;;;;2.55;1.38;;;3.00;99.90;;;;;;5010941;28;20065;-90
2022/03/31 08:41:32;;;;;;;2.30;1.50;;;3.00;99.90;;;;;;5002968;28;20455;-89
2022/03/31 08:43:58;;;;;;;2.28;1.50;;;3.00;99.90;;;;;;4991390;28;20042;-89
2022/03/31 08:46:30;;;;;;;2.00;1.10;;;2.90;99.90;;;;;;5003083;28;20080;-88
2022/03/31 08:48:56;;;;;;;2.72;1.38;;;2.90;99.90;;;;;;4994031;28;20129;-89
2022/03/31 08:51:23;;;;;;;3.03;1.63;;;3.00;99.90;;;;;;4994853;28;20103;-87
2022/03/31 08:53:48;;;;;;;2.60;1.67;;;3.10;99.90;;;;;;4993908;28;20426;-88
2022/03/31 08:56:15;;;;;;;3.00;1.90;;;3.10;99.90;;;;;;4991100;28;20080;-91
2022/03/31 08:58:43;;;;;;;2.42;1.52;;;3.10;99.90;;;;;;5000646;28;20030;-88
2022/03/31 09:01:14;;;;;;;2.70;1.88;;;3.20;99.90;;;;;;4993792;28;20027;-89
2022/03/31 09:03:41;;;;;;;3.85;2.10;;;3.20;99.90;;;;;;4988594;28;20035;-88
2022/03/31 09:06:10;;;;;;;3.92;2.03;;;3.10;99.90;;;;;;4997761;28;20030;-89
2022/03/31 09:08:36;;;;;;;2.75;1.90;;;3.10;99.90;;;;;;4989822;28;20521;-88
2022/03/31 09:11:03;;;;;;;2.70;1.85;;;3.10;99.90;;;;;;5004913;28;20062;-88
2022/03/31 09:13:38;;;;;;;3.28;2.47;;;3.20;99.90;;;;;;5006508;28;20038;-90
2022/03/31 09:16:06;;;;;;;4.85;2.15;;;3.20;99.90;;;;;;5003034;28;20043;-89
2022/03/31 09:18:34;;;;;;;2.92;2.33;;;3.30;99.90;;;;;;5010457;28;20037;-88
2022/03/31 09:21:02;;;;;;;2.85;2.20;;;3.40;99.90;;;;;;4993594;28;20069;-88
2022/03/31 09:23:31;;;;;;;2.60;2.03;;;3.50;99.90;;;;;;4987471;28;20048;-88
2022/03/31 09:26:09;;;;;;;3.20;2.50;;;3.60;99.90;;;;;;5003600;28;20007;-87
2022/03/31 09:28:36;;;;;;;2.92;2.28;;;3.70;99.90;;;;;;5016580;28;20477;-88
2022/03/31 09:31:02;;;;;;;3.88;2.55;;;3.80;99.90;;;;;;5002734;28;20027;-88
2022/03/31 09:33:32;;;;;;;3.67;1.83;;;3.80;99.90;;;;;;4994251;28;20390;-88
2022/03/31 09:36:07;;;;;;;3.35;2.50;;;3.80;99.90;;;;;;4984867;28;20036;-88
2022/03/31 09:38:38;;;;;;;3.33;2.08;;;3.80;99.90;;;;;;4994142;28;20034;-88
2022/03/31 09:41:25;;;;;;;3.13;2.50;;;3.80;99.90;;;;;;4989091;28;20030;-88
2022/03/31 09:43:53;;;;;;;2.97;2.30;;;3.80;99.90;;;;;;4985163;28;20049;-88
2022/03/31 09:46:19;;;;;;;2.63;2.00;;;3.80;99.90;;;;;;5005944;28;20035;-88
2022/03/31 09:48:45;;;;;;;2.58;1.92;;;3.90;99.90;;;;;;4999924;28;20054;-88
2022/03/31 09:51:12;;;;;;;3.67;2.58;;;3.90;99.90;;;;;;4989234;28;20034;-88
2022/03/31 09:53:38;;;;;;;2.90;2.55;;;3.90;99.90;;;;;;4990489;28;20050;-89
2022/03/31 09:56:05;;;;;;;2.25;1.73;;;4.00;99.90;;;;;;5001096;28;20269;-88
2022/03/31 09:58:35;;;;;;;2.65;2.05;;;4.10;99.90;;;;;;5003248;28;20030;-88
2022/03/31 10:01:02;;;;;;;3.50;2.47;;;4.00;99.90;;;;;;5006418;28;20037;-88
2022/03/31 10:03:28;;;;;;;2.15;1.55;;;4.00;99.90;;;;;;5007124;28;20068;-87
2022/03/31 10:05:54;;;;;;;2.80;1.88;;;4.00;99.90;;;;;;4990083;28;20467;-88
2022/03/31 10:08:20;;;;;;;2.80;2.05;;;4.00;99.90;;;;;;5007246;28;20026;-88
2022/03/31 10:10:46;;;;;;;2.97;2.25;;;3.90;99.90;;;;;;4986328;28;20022;-88
2022/03/31 10:13:22;;;;;;;2.90;2.38;;;3.90;99.90;;;;;;5005308;28;20035;-88
2022/03/31 10:15:55;;;;;;;2.75;1.98;;;3.90;99.90;;;;;;4990424;28;20037;-87
2022/03/31 10:18:21;;;;;;;4.50;2.80;;;4.00;99.90;;;;;;5005826;28;20478;-88
2022/03/31 10:20:58;;;;;;;3.17;2.60;;;4.10;99.90;;;;;;4987629;28;20080;-88
2022/03/31 10:26:21;;;;;;;3.00;2.28;;;4.20;99.90;;;;;;4986009;28;20045;-88
2022/03/31 10:28:57;;;;;;;2.85;1.85;;;4.20;99.90;;;;;;4992328;28;20019;-89
2022/03/31 10:31:34;;;;;;;2.67;1.98;;;4.30;99.90;;;;;;4983969;28;20084;-88
2022/03/31 10:34:00;;;;;;;3.00;2.25;;;4.30;99.90;;;;;;4991066;28;20113;-88
2022/03/31 10:36:38;;;;;;;2.50;2.00;;;4.30;99.90;;;;;;4992354;28;20080;-89
2022/03/31 10:39:07;;;;;;;3.53;2.55;;;4.30;99.90;;;;;;4991372;28;20396;-89
2022/03/31 10:41:38;;;;;;;3.50;2.10;;;4.20;99.90;;;;;;4982331;28;20474;-89
2022/03/31 10:44:16;;;;;;;2.90;2.13;;;4.30;99.90;;;;;;4988908;28;20038;-90
2022/03/31 10:46:44;;;;;;;3.45;2.38;;;4.30;99.90;;;;;;4986276;28;20029;-89
2022/03/31 10:49:19;;;;;;;3.08;2.17;;;4.30;99.90;;;;;;4990852;28;20137;-89
2022/03/31 10:51:46;;;;;;;2.95;2.28;;;4.40;99.90;;;;;;4990613;28;20034;-88
2022/03/31 10:54:29;;;;;;;5.00;2.47;;;4.40;99.90;;;;;;4986238;28;20487;-88
2022/03/31 10:57:06;;;;;;;2.45;1.42;;;4.40;99.90;;;;;;4992057;28;20026;-88
2022/03/31 10:59:34;;;;;;;3.47;2.25;;;4.40;99.90;;;;;;4985359;28;20022;-89
2022/03/31 11:02:20;;;;;;;4.43;2.60;;;4.30;99.90;;;;;;4988868;28;20022;-89
2022/03/31 11:04:53;;;;;;;3.08;2.42;;;4.30;99.90;;;;;;4997953;28;20131;-89
2022/03/31 11:07:24;;;;;;;5.47;2.75;;;4.30;99.90;;;;;;4991024;28;20057;-90
2022/03/31 11:10:11;;;;;;;3.75;3.22;;;4.20;99.90;;;;;;4990623;28;20035;-90
2022/03/31 11:12:38;;;;;;;4.53;3.10;;;4.30;99.90;;;;;;4992735;28;20493;-89
2022/03/31 11:15:09;;;;;;;3.78;2.72;;;4.30;99.90;;;;;;4989565;28;20088;-91
2022/03/31 11:17:37;;;;;;;3.00;2.15;;;4.40;99.90;;;;;;5003210;28;20508;-90
2022/03/31 11:20:24;;;;;;;4.53;2.10;;;4.40;99.90;;;;;;4988538;28;20378;-91
2022/03/31 11:23:06;;;;;;;3.00;2.55;;;4.50;99.90;;;;;;4988741;28;20045;-89
2022/03/31 11:25:33;;;;;;;3.42;2.40;;;4.50;99.90;;;;;;4991422;28;20500;-90
2022/03/31 11:28:07;;;;;;;5.00;2.75;;;4.50;99.90;;;;;;4992381;28;20034;-89
2022/03/31 11:30:33;;;;;;;2.85;1.83;;;4.40;99.90;;;;;;4992606;28;20179;-90
2022/03/31 11:33:00;;;;;;;3.33;2.72;;;4.40;99.90;;;;;;4990956;28;20086;-90
2022/03/31 11:35:28;;;;;;;3.13;2.65;;;4.40;99.90;;;;;;4989695;28;20165;-89
2022/03/31 11:38:03;;;;;;;4.13;2.42;;;4.40;99.90;;;;;;4993725;28;20493;-89
2022/03/31 11:40:31;;;;;;;5.80;2.95;;;4.40;99.90;;;;;;4989922;28;20046;-89
2022/03/31 11:42:59;;;;;;;3.38;2.35;;;4.30;99.90;;;;;;4992611;28;20025;-88
2022/03/31 11:45:34;;;;;;;3.88;2.75;;;4.30;99.90;;;;;;4993737;28;20045;-88
2022/03/31 11:48:23;;;;;;;3.00;2.50;;;4.20;99.90;;;;;;4992686;28;20112;-89
2022/03/31 11:50:53;;;;;;;3.40;2.53;;;4.20;99.90;;;;;;4988827;28;20022;-89
2022/03/31 11:53:20;;;;;;;3.70;2.83;;;4.20;99.90;;;;;;5009768;28;20113;-89
2022/03/31 11:56:03;;;;;;;4.97;4.00;;;4.20;99.90;;;;;;4996126;28;20045;-89
2022/03/31 11:58:30;;;;;;;5.35;3.97;;;4.20;99.90;;;;;;4991192;28;20491;-89
2022/03/31 12:00:56;;;;;;;3.85;3.08;;;4.30;99.90;;;;;;4991803;28;20045;-89
2022/03/31 12:03:22;;;;;;;9.80;6.93;;;4.30;99.90;;;;;;4991443;28;20039;-89
2022/03/31 12:05:59;;;;;;;4.50;2.88;;;4.30;99.90;;;;;;4994526;28;20105;-89
2022/03/31 12:08:26;;;;;;;4.63;2.88;;;4.30;99.90;;;;;;4995844;28;20034;-88
2022/03/31 12:10:52;;;;;;;4.97;2.17;;;4.40;99.90;;;;;;4989688;28;20482;-87
2022/03/31 12:13:19;;;;;;;3.53;2.60;;;4.30;99.90;;;;;;4991885;28;20034;-88
2022/03/31 12:15:45;;;;;;;3.05;2.45;;;4.30;99.90;;;;;;4990220;28;20046;-89
2022/03/31 12:18:16;;;;;;;2.28;1.90;;;4.30;99.90;;;;;;5011366;28;20026;-88
2022/03/31 12:20:43;;;;;;;2.58;2.05;;;4.30;99.90;;;;;;4978056;28;20039;-88
2022/03/31 12:23:21;;;;;;;2.65;2.15;;;4.20;99.90;;;;;;4986611;28;20035;-89
2022/03/31 12:25:47;;;;;;;5.03;3.22;;;4.20;99.90;;;;;;4993517;28;20030;-91
2022/03/31 12:28:13;;;;;;;5.22;3.50;;;4.20;99.90;;;;;;4987410;28;20026;-90
2022/03/31 12:30:52;;;;;;;9.52;5.30;;;4.30;99.90;;;;;;4995681;28;20652;-90
2022/03/31 12:33:31;;;;;;;23.00;9.48;;;4.30;99.90;;;;;;5001825;28;20038;-89
2022/03/31 12:36:07;;;;;;;6.53;4.03;;;4.40;99.90;;;;;;5002598;28;20538;-90
2022/03/31 12:38:44;;;;;;;5.55;3.13;;;4.30;99.90;;;;;;4988342;28;20030;-90
2022/03/31 12:41:33;;;;;;;12.07;6.13;;;4.30;99.90;;;;;;5006208;28;20108;-88
2022/03/31 12:44:01;;;;;;;3.90;2.30;;;4.40;99.90;;;;;;5010104;28;20125;-89
2022/03/31 12:46:30;;;;;;;10.73;3.00;;;4.40;99.90;;;;;;4994927;28;20027;-89
2022/03/31 12:49:06;;;;;;;5.05;2.65;;;4.40;99.90;;;;;;4994163;28;20057;-89
2022/03/31 12:51:53;;;;;;;6.68;3.53;;;4.50;99.90;;;;;;5010446;28;20031;-89
2022/03/31 12:54:24;;;;;;;2.90;1.75;;;4.60;99.90;;;;;;5010959;28;20026;-87
2022/03/31 12:56:52;;;;;;;7.85;4.22;;;4.60;99.90;;;;;;4992400;28;20039;-89
2022/03/31 12:59:24;;;;;;;6.15;4.13;;;4.50;99.90;;;;;;5002259;28;20033;-88
2022/03/31 13:02:13;;;;;;;2.75;1.73;;;4.40;99.90;;;;;;4984036;28;20064;-89
2022/03/31 13:04:44;;;;;;;2.25;1.33;;;4.40;99.90;;;;;;4987270;28;20093;-89
2022/03/31 13:07:14;;;;;;;2.28;1.48;;;4.40;99.90;;;;;;4989637;28;20116;-89
2022/03/31 13:09:41;;;;;;;2.50;1.67;;;4.40;99.90;;;;;;5011087;28;20447;-89
2022/03/31 13:12:10;;;;;;;8.68;6.53;;;4.30;99.90;;;;;;5005089;28;20026;-89
2022/03/31 13:14:41;;;;;;;2.05;1.30;;;4.40;99.90;;;;;;4992376;28;20031;-89
2022/03/31 13:17:07;;;;;;;1.85;1.42;;;4.40;99.90;;;;;;5001756;28;20035;-90